Pagina principale
METAR-TAF:

METAR-TAF

Aeroporti :

Aeroporto di Rimini-Miramare

Rimini, Italia

latitudine: 44-02N, longitudine: 012-37E, altezza: 12 m

Osservazione

Il bollettino è stato emesso 21 minuti fa, alle 12:50 UTC
Vento 9 kt da nord, variando fra nord/nord-ovest e nord-est
Temperature 21°C
Umidità 78%
Pressione 1017 hPa
Visibilità 10 km o più
Poco nuvoloso ad un'altezza di 1500 ft

METAR: LIPR 271250Z 01009KT 340V040 9999 FEW015 21/17 Q1017

Ora: 15:11 (13:11 UTC)

Previsione

Il bollettino è stato emesso 2 ore e 11 minuti fa, alle 11:00 UTC
Previsione valida dal 27 alle 12 UTC al 28 alle 12 UTC
Vento 6 kt da direzioni variabili
Visibilità: 8000 m
Nubi sparse ad un'altezza di 2000 ft
Probabilità 40% :
Temporaneamente
dal 27 alle 12 UTC al 27 alle 17 UTC
temporale, pioggia

TAF: LIPR 271100Z 2712/2812 VRB06KT 8000 SCT020 PROB40 TEMPO 2712/2717 TSRA

Osservazioni e previsioni meteorologiche di più di 4000 aeroporti (messaggi METAR e TAF).

Le stazioni disponibili sono rappresentate dai dischi gialli e rossi sulla carta.

Puntare il mouse per vedere il nome della stazione.

Clicca sopra per visualizzare le osservazioni e previsioni meteorologiche.

Per cambiare la mappa : fare clic sui pulsanti verdi con una croce nera per ingrandire, il pulsante verde con un trattino per diminuire, o sulla freccia verde per le mappe adiacenti.


METAR-TAF: